Time;durP1;ratioP1;P1;durP2;ratioP2;P2;SDS_P1;SDS_P2;PMS_P1;PMS_P2;Temp;Humidity;BMP_temperature;BMP_pressure;BME280_temperature;BME280_humidity;BME280_pressure;Samples;Min_cycle;Max_cycle;Signal;HPM_P1;HPM_P2
2023/03/17 00:00:51;;;;;;;;;;;;;;;3.04;100.00;99844.19;5092081;28;886;-63
2023/03/17 00:03:25;;;;;;;;;;;;;;;3.01;100.00;99842.97;5092176;28;894;-63
2023/03/17 00:05:52;;;;;;;;;;;;;;;3.05;100.00;99841.13;5092140;28;859;-64
2023/03/17 00:08:21;;;;;;;;;;;;;;;3.10;100.00;99833.81;5092094;28;898;-65
2023/03/17 00:10:48;;;;;;;;;;;;;;;3.12;100.00;99831.53;5091676;28;1329;-63
2023/03/17 00:13:15;;;;;;;;;;;;;;;3.05;100.00;99838.41;5091971;28;1905;-64
2023/03/17 00:15:44;;;;;;;;;;;;;;;3.03;100.00;99837.94;5091921;28;1634;-64
2023/03/17 00:18:14;;;;;;;;;;;;;;;3.04;100.00;99838.72;5091920;28;812;-65
2023/03/17 00:20:42;;;;;;;;;;;;;;;3.03;100.00;99837.94;5091956;28;819;-62
2023/03/17 00:23:13;;;;;;;;;;;;;;;3.05;100.00;99827.47;5091831;28;925;-65
2023/03/17 00:25:42;;;;;;;;;;;;;;;3.05;100.00;99832.94;5092018;28;812;-65
2023/03/17 00:28:14;;;;;;;;;;;;;;;3.04;100.00;99817.69;5091880;28;804;-62
2023/03/17 00:30:40;;;;;;;;;;;;;;;3.06;100.00;99834.50;5091730;28;870;-65
2023/03/17 00:33:09;;;;;;;;;;;;;;;3.04;100.00;99816.88;5091658;28;1910;-64
2023/03/17 00:35:37;;;;;;;;;;;;;;;3.07;100.00;99824.38;5091662;28;891;-66
2023/03/17 00:38:05;;;;;;;;;;;;;;;3.05;100.00;99841.13;5091629;28;922;-66
2023/03/17 00:40:32;;;;;;;;;;;;;;;3.06;100.00;99836.44;5091971;28;804;-63
2023/03/17 00:42:59;;;;;;;;;;;;;;;3.03;100.00;99835.22;5091501;28;883;-65
2023/03/17 00:45:26;;;;;;;;;;;;;;;3.02;100.00;99846.47;5091558;28;843;-68
2023/03/17 00:47:54;;;;;;;;;;;;;;;3.01;100.00;99814.88;5073380;28;1216;-67
2023/03/17 00:50:22;;;;;;;;;;;;;;;3.00;100.00;99844.09;5091521;28;828;-65
2023/03/17 00:52:50;;;;;;;;;;;;;;;2.97;100.00;99825.69;5091423;28;1882;-64
2023/03/17 00:55:18;;;;;;;;;;;;;;;2.95;100.00;99877.13;5094207;28;862;-65
2023/03/17 00:57:46;;;;;;;;;;;;;;;2.94;100.00;99856.41;5095650;28;886;-67
2023/03/17 01:00:23;;;;;;;;;;;;;;;2.93;100.00;99867.69;5095582;28;772;-65
2023/03/17 01:02:51;;;;;;;;;;;;;;;2.96;100.00;99883.38;5077352;28;1502;-68
2023/03/17 01:05:19;;;;;;;;;;;;;;;2.91;100.00;99853.59;5095466;28;930;-65
2023/03/17 01:07:51;;;;;;;;;;;;;;;2.91;100.00;99870.00;5095455;28;976;-66
2023/03/17 01:10:22;;;;;;;;;;;;;;;2.89;100.00;99873.06;5073672;28;1554;-67
2023/03/17 01:12:49;;;;;;;;;;;;;;;2.84;100.00;99870.59;5075075;28;1909;-65
2023/03/17 01:15:16;;;;;;;;;;;;;;;2.84;100.00;99881.50;5075085;28;874;-65
2023/03/17 01:17:43;;;;;;;;;;;;;;;2.88;100.00;99843.38;5075116;28;941;-64
2023/03/17 01:20:15;;;;;;;;;;;;;;;2.89;100.00;99851.22;5074973;28;893;-65
2023/03/17 01:22:42;;;;;;;;;;;;;;;2.86;100.00;99887.41;5074993;28;819;-64
2023/03/17 01:25:10;;;;;;;;;;;;;;;2.84;100.00;99886.97;5075044;28;816;-67
2023/03/17 01:27:37;;;;;;;;;;;;;;;2.81;100.00;99887.66;5075109;28;831;-67
2023/03/17 01:30:05;;;;;;;;;;;;;;;2.81;100.00;99865.81;5075114;28;808;-66
2023/03/17 01:32:31;;;;;;;;;;;;;;;2.80;100.00;99869.69;5074856;28;1885;-65
2023/03/17 01:34:59;;;;;;;;;;;;;;;2.80;100.00;99872.44;5074997;28;894;-65
2023/03/17 01:37:26;;;;;;;;;;;;;;;2.84;100.00;99876.06;5073524;28;1187;-65
2023/03/17 01:39:52;;;;;;;;;;;;;;;2.88;100.00;99889.78;5074868;28;863;-67
2023/03/17 01:42:19;;;;;;;;;;;;;;;2.89;100.00;99872.28;5074847;28;835;-65
2023/03/17 01:45:06;;;;;;;;;;;;;;;2.91;100.00;99878.97;5074786;28;859;-66
2023/03/17 01:47:33;;;;;;;;;;;;;;;2.86;100.00;99890.16;5075025;28;859;-65
2023/03/17 01:50:05;;;;;;;;;;;;;;;2.84;100.00;99889.69;5074474;28;890;-65
2023/03/17 01:52:33;;;;;;;;;;;;;;;2.86;100.00;99890.94;5074337;28;1889;-66
2023/03/17 01:55:08;;;;;;;;;;;;;;;2.89;100.00;99891.38;5074316;28;875;-66
2023/03/17 01:57:53;;;;;;;;;;;;;;;2.92;100.00;99904.31;5072981;28;1227;-66
2023/03/17 02:00:23;;;;;;;;;;;;;;;2.90;100.00;99899.19;5074286;28;823;-66
2023/03/17 02:02:50;;;;;;;;;;;;;;;2.90;100.00;99892.97;5074114;28;799;-67
2023/03/17 02:05:19;;;;;;;;;;;;;;;2.90;100.00;99895.69;5074087;28;879;-68
2023/03/17 02:07:46;;;;;;;;;;;;;;;2.90;100.00;99891.00;5074013;28;994;-67
2023/03/17 02:10:14;;;;;;;;;;;;;;;2.98;100.00;99916.59;5085449;28;1270;-67
2023/03/17 02:12:42;;;;;;;;;;;;;;;2.99;100.00;99899.88;5094166;28;1921;-66
2023/03/17 02:15:09;;;;;;;;;;;;;;;2.98;100.00;99917.38;5094325;28;866;-66
2023/03/17 02:17:37;;;;;;;;;;;;;;;3.01;100.00;99891.34;5094077;28;840;-65
2023/03/17 02:20:16;;;;;;;;;;;;;;;3.03;100.00;99899.94;5094123;28;950;-67
2023/03/17 02:22:48;;;;;;;;;;;;;;;3.00;100.00;99897.91;5093921;28;804;-67
2023/03/17 02:25:16;;;;;;;;;;;;;;;3.00;100.00;99900.66;5094305;28;819;-67
2023/03/17 02:27:45;;;;;;;;;;;;;;;3.02;100.00;99918.28;5093904;28;903;-67
2023/03/17 02:30:13;;;;;;;;;;;;;;;2.98;100.00;99905.66;5094005;28;860;-67
2023/03/17 02:32:39;;;;;;;;;;;;;;;2.96;100.00;99906.00;5075662;28;1893;-66
2023/03/17 02:35:07;;;;;;;;;;;;;;;2.90;100.00;99912.84;5094009;28;824;-66
2023/03/17 02:37:34;;;;;;;;;;;;;;;2.91;100.00;99894.56;5075582;28;1389;-66
2023/03/17 02:40:01;;;;;;;;;;;;;;;2.89;100.00;99921.41;5093751;28;840;-65
2023/03/17 02:42:28;;;;;;;;;;;;;;;2.89;100.00;99918.69;5093683;28;803;-65
2023/03/17 02:44:54;;;;;;;;;;;;;;;2.86;100.00;99918.25;5093576;28;864;-65
2023/03/17 02:47:21;;;;;;;;;;;;;;;2.85;100.00;99918.56;5075376;28;1320;-65
2023/03/17 02:49:48;;;;;;;;;;;;;;;2.83;100.00;99923.59;5093557;28;840;-64
2023/03/17 02:52:14;;;;;;;;;;;;;;;2.79;100.00;99888.00;5093328;28;1897;-65
2023/03/17 02:54:41;;;;;;;;;;;;;;;2.71;100.00;99929.91;5093418;28;863;-64
2023/03/17 02:57:08;;;;;;;;;;;;;;;2.64;100.00;99932.41;5093390;28;889;-64
2023/03/17 02:59:35;;;;;;;;;;;;;;;2.64;100.00;99933.19;5093557;28;843;-66
2023/03/17 03:02:01;;;;;;;;;;;;;;;2.57;100.00;99921.28;5093248;28;890;-66
2023/03/17 03:04:29;;;;;;;;;;;;;;;2.55;100.00;99934.50;5093240;28;886;-65
2023/03/17 03:06:56;;;;;;;;;;;;;;;2.55;100.00;99950.84;5093150;28;831;-64
2023/03/17 03:09:24;;;;;;;;;;;;;;;2.52;100.00;99946.06;5093133;28;1402;-64
2023/03/17 03:11:51;;;;;;;;;;;;;;;2.50;100.00;99956.53;5092988;28;1914;-65
2023/03/17 03:14:17;;;;;;;;;;;;;;;2.49;100.00;99953.03;5074903;28;1206;-66
2023/03/17 03:16:45;;;;;;;;;;;;;;;2.45;100.00;99949.38;5092418;28;816;-64
2023/03/17 03:19:12;;;;;;;;;;;;;;;2.50;100.00;99942.88;5092975;28;835;-64
2023/03/17 03:21:38;;;;;;;;;;;;;;;2.47;100.00;99952.56;5092862;28;874;-65
2023/03/17 03:24:06;;;;;;;;;;;;;;;2.48;100.00;99951.44;5092797;28;866;-68
2023/03/17 03:26:32;;;;;;;;;;;;;;;2.52;100.00;99971.44;5092851;28;878;-67
2023/03/17 03:28:59;;;;;;;;;;;;;;;2.45;100.00;99963.84;5092744;28;858;-65
2023/03/17 03:31:26;;;;;;;;;;;;;;;2.43;100.00;99947.03;5092704;28;866;-68
2023/03/17 03:33:53;;;;;;;;;;;;;;;2.54;100.00;99954.72;5092599;28;1905;-64
2023/03/17 03:36:19;;;;;;;;;;;;;;;2.51;100.00;99939.81;5092788;28;824;-66
2023/03/17 03:38:45;;;;;;;;;;;;;;;2.54;100.00;99971.09;5092567;28;944;-64
2023/03/17 03:41:12;;;;;;;;;;;;;;;2.45;100.00;99969.31;5092776;28;894;-65
2023/03/17 03:43:39;;;;;;;;;;;;;;;2.50;100.00;99986.56;5092527;28;894;-66
2023/03/17 03:46:06;;;;;;;;;;;;;;;2.45;100.00;99977.50;5092437;28;855;-64
2023/03/17 03:48:33;;;;;;;;;;;;;;;2.44;100.00;99986.00;5092477;28;832;-65
2023/03/17 03:51:00;;;;;;;;;;;;;;;2.47;100.00;99973.59;5092406;28;824;-67
2023/03/17 03:53:28;;;;;;;;;;;;;;;2.46;100.00;99989.19;5092227;28;1943;-64
2023/03/17 03:55:55;;;;;;;;;;;;;;;2.45;100.00;99984.84;5092229;28;827;-65
2023/03/17 03:58:22;;;;;;;;;;;;;;;2.55;100.00;99973.47;5092228;28;879;-65
2023/03/17 04:00:48;;;;;;;;;;;;;;;2.54;100.00;99992.91;5092068;28;856;-65
2023/03/17 04:03:15;;;;;;;;;;;;;;;2.50;100.00;99986.56;5092158;28;871;-66
2023/03/17 04:05:42;;;;;;;;;;;;;;;2.53;100.00;99981.22;5092173;28;902;-66
2023/03/17 04:08:10;;;;;;;;;;;;;;;2.54;100.00;99982.00;5073916;28;1629;-65
2023/03/17 04:10:36;;;;;;;;;;;;;;;2.61;100.00;99987.69;5091849;28;1441;-67
2023/03/17 04:13:03;;;;;;;;;;;;;;;2.67;100.00;99983.59;5092008;28;1918;-68
2023/03/17 04:15:29;;;;;;;;;;;;;;;2.69;100.00;99992.22;5091909;28;871;-64
2023/03/17 04:17:56;;;;;;;;;;;;;;;2.71;100.00;100002.78;5091926;28;835;-67
2023/03/17 04:20:23;;;;;;;;;;;;;;;2.69;100.00;99994.13;5092026;28;911;-64
2023/03/17 04:22:50;;;;;;;;;;;;;;;2.75;100.00;99999.03;5091847;28;854;-66
2023/03/17 04:25:16;;;;;;;;;;;;;;;2.78;100.00;100003.00;5091826;28;855;-67
2023/03/17 04:27:43;;;;;;;;;;;;;;;2.82;100.00;100004.69;5091745;28;878;-69
2023/03/17 04:30:12;;;;;;;;;;;;;;;2.88;100.00;100005.25;5090847;28;859;-67
2023/03/17 04:32:39;;;;;;;;;;;;;;;2.97;100.00;100016.03;5091574;28;1945;-66
2023/03/17 04:35:07;;;;;;;;;;;;;;;2.94;100.00;100003.84;5092065;28;820;-67
2023/03/17 04:37:34;;;;;;;;;;;;;;;2.92;100.00;100021.72;5091575;28;865;-67
2023/03/17 04:40:01;;;;;;;;;;;;;;;3.00;100.00;100027.06;5091603;28;875;-67
2023/03/17 04:42:28;;;;;;;;;;;;;;;3.03;100.00;100031.84;5091635;28;918;-69
2023/03/17 04:44:54;;;;;;;;;;;;;;;3.08;100.00;100030.00;5091565;28;870;-67
2023/03/17 04:47:21;;;;;;;;;;;;;;;3.08;100.00;100039.00;5091637;28;926;-67
2023/03/17 04:49:47;;;;;;;;;;;;;;;3.10;100.00;100044.13;5091436;28;846;-67
2023/03/17 04:52:14;;;;;;;;;;;;;;;3.19;100.00;100036.56;5091460;28;1894;-67
2023/03/17 04:54:41;;;;;;;;;;;;;;;3.18;100.00;100043.97;5091398;28;843;-66
2023/03/17 04:57:08;;;;;;;;;;;;;;;3.22;100.00;100050.31;5091682;28;815;-66
2023/03/17 04:59:34;;;;;;;;;;;;;;;3.30;100.00;100056.78;5091333;28;815;-67
2023/03/17 05:02:03;;;;;;;;;;;;;;;3.31;100.00;100060.28;5091364;28;871;-68
2023/03/17 05:04:30;;;;;;;;;;;;;;;3.36;100.00;100040.94;5091275;28;980;-69
2023/03/17 05:06:57;;;;;;;;;;;;;;;3.38;100.00;100047.63;5091372;28;882;-65
2023/03/17 05:09:24;;;;;;;;;;;;;;;3.42;100.00;100034.09;5091158;28;1364;-70
2023/03/17 05:11:50;;;;;;;;;;;;;;;3.48;100.00;100052.63;5091229;28;1981;-67
2023/03/17 05:14:17;;;;;;;;;;;;;;;3.57;100.00;100048.94;5091261;28;883;-67
2023/03/17 05:16:46;;;;;;;;;;;;;;;3.56;100.00;100058.25;5091175;28;824;-66
2023/03/17 05:19:13;;;;;;;;;;;;;;;3.69;100.00;100068.00;5091103;28;804;-68
2023/03/17 05:21:40;;;;;;;;;;;;;;;3.72;100.00;100069.25;5091082;28;1001;-69
2023/03/17 05:24:06;;;;;;;;;;;;;;;3.62;100.00;100073.28;5091124;28;851;-67
2023/03/17 05:26:33;;;;;;;;;;;;;;;3.79;100.00;100074.91;5091126;28;824;-71
2023/03/17 05:28:59;;;;;;;;;;;;;;;4.01;100.00;100084.44;5091407;28;836;-68
2023/03/17 05:31:26;;;;;;;;;;;;;;;4.17;100.00;100079.00;5091074;28;887;-68
2023/03/17 05:34:01;;;;;;;;;;;;;;;4.06;100.00;100076.78;5090965;28;1877;-69
2023/03/17 05:36:27;;;;;;;;;;;;;;;4.29;100.00;100078.94;5073186;28;1237;-70
2023/03/17 05:38:54;;;;;;;;;;;;;;;4.56;100.00;100071.75;5091083;28;1055;-69
2023/03/17 05:41:21;;;;;;;;;;;;;;;4.69;100.00;100076.00;5094137;28;808;-69
2023/03/17 05:43:48;;;;;;;;;;;;;;;5.01;100.00;100091.53;5094966;28;906;-71
2023/03/17 05:46:14;;;;;;;;;;;;;;;4.79;100.00;100062.88;5095067;28;879;-69
2023/03/17 05:48:41;;;;;;;;;;;;;;;4.27;100.00;100111.31;5094576;28;804;-69
2023/03/17 05:51:08;;;;;;;;;;;;;;;4.74;100.00;100106.97;5076500;28;1367;-68
2023/03/17 05:53:37;;;;;;;;;;;;;;;5.05;100.00;100117.06;5094496;28;1882;-68
2023/03/17 05:56:04;;;;;;;;;;;;;;;5.11;100.00;100123.88;5094908;28;827;-68
2023/03/17 05:58:31;;;;;;;;;;;;;;;5.15;100.00;100126.69;5094788;28;852;-67
2023/03/17 06:00:57;;;;;;;;;;;;;;;5.12;100.00;100130.91;5094631;28;904;-71
2023/03/17 06:03:24;;;;;;;;;;;;;;;5.40;100.00;100136.25;5095319;28;839;-69
2023/03/17 06:05:51;;;;;;;;;;;;;;;5.13;100.00;100123.53;5094457;28;800;-67
2023/03/17 06:08:18;;;;;;;;;;;;;;;4.93;100.00;100133.63;5094593;28;997;-69
2023/03/17 06:10:46;;;;;;;;;;;;;;;4.68;100.00;100117.41;5093977;28;1442;-70
2023/03/17 06:13:12;;;;;;;;;;;;;;;4.49;100.00;100140.81;5094706;28;1981;-67
2023/03/17 06:15:40;;;;;;;;;;;;;;;4.43;100.00;100149.63;5094427;28;886;-69
2023/03/17 06:18:07;;;;;;;;;;;;;;;4.37;100.00;100131.88;5094370;28;827;-70
2023/03/17 06:20:35;;;;;;;;;;;;;;;4.30;100.00;100137.97;5094397;28;922;-73
2023/03/17 06:23:02;;;;;;;;;;;;;;;4.29;100.00;100148.13;5094411;28;871;-68
2023/03/17 06:25:29;;;;;;;;;;;;;;;4.26;100.00;100150.75;5094242;28;804;-69
2023/03/17 06:27:56;;;;;;;;;;;;;;;4.24;100.00;100139.38;5094214;28;891;-67
2023/03/17 06:30:23;;;;;;;;;;;;;;;4.24;100.00;100142.91;5075886;28;1310;-66
2023/03/17 06:32:50;;;;;;;;;;;;;;;4.48;100.00;100150.19;5094223;28;1957;-68
2023/03/17 06:35:17;;;;;;;;;;;;;;;4.98;100.00;100117.72;5094144;28;902;-66
2023/03/17 06:37:44;;;;;;;;;;;;;;;5.29;100.00;100152.47;5093975;28;859;-69
2023/03/17 06:40:16;;;;;;;;;;;;;;;4.96;100.00;100127.44;5094005;28;887;-71
2023/03/17 06:42:43;;;;;;;;;;;;;;;5.19;100.00;100150.28;5093887;28;819;-72
2023/03/17 06:45:11;;;;;;;;;;;;;;;5.38;100.00;100146.00;5093717;28;867;-69
2023/03/17 06:47:38;;;;;;;;;;;;;;;5.12;100.00;100158.31;5093702;28;838;-72
2023/03/17 06:50:05;;;;;;;;;;;;;;;5.51;100.00;100115.31;5093544;28;847;-70
2023/03/17 06:55:32;;;;;;;;;;;;;;;5.24;100.00;100136.28;5094009;28;649;-68
2023/03/17 06:58:00;;;;;;;;;;;;;;;5.31;100.00;100141.13;5093323;28;1331;-66
2023/03/17 07:00:27;;;;;;;;;;;;;;;5.35;99.73;100125.56;5094123;28;756;-71
2023/03/17 07:02:54;;;;;;;;;;;;;;;5.55;100.00;100131.03;5093626;28;851;-70
2023/03/17 07:05:21;;;;;;;;;;;;;;;5.67;100.00;100131.69;5093850;28;760;-69
2023/03/17 07:07:48;;;;;;;;;;;;;;;5.80;94.88;100137.81;5093819;28;1109;-68
2023/03/17 07:10:16;;;;;;;;;;;;;;;5.66;96.79;100132.88;5093286;28;1253;-71
2023/03/17 07:12:43;;;;;;;;;;;;;;;5.98;98.47;100137.44;5094010;28;2012;-66
2023/03/17 07:15:11;;;;;;;;;;;;;;;6.38;94.69;100149.91;5093566;28;831;-68
2023/03/17 07:17:37;;;;;;;;;;;;;;;6.21;95.86;100137.44;5074924;28;1299;-68
2023/03/17 07:20:05;;;;;;;;;;;;;;;6.21;92.16;100156.66;5093245;28;828;-69
2023/03/17 07:22:32;;;;;;;;;;;;;;;6.34;91.68;100158.09;5093108;28;981;-68
2023/03/17 07:24:59;;;;;;;;;;;;;;;6.53;92.83;100146.25;5092975;28;871;-68
2023/03/17 07:27:25;;;;;;;;;;;;;;;6.62;90.53;100132.28;5093171;28;835;-69
2023/03/17 07:29:52;;;;;;;;;;;;;;;6.19;89.21;100118.63;5093004;28;906;-69
2023/03/17 07:32:19;;;;;;;;;;;;;;;5.95;92.87;100140.88;5074813;28;1890;-72
2023/03/17 07:34:45;;;;;;;;;;;;;;;6.33;90.08;100170.22;5093195;28;863;-69
2023/03/17 07:37:12;;;;;;;;;;;;;;;5.82;92.70;100124.53;5092803;28;934;-69
2023/03/17 07:39:39;;;;;;;;;;;;;;;6.27;87.87;100133.25;5093335;28;858;-68
2023/03/17 07:42:06;;;;;;;;;;;;;;;5.70;91.04;100119.22;5093148;28;867;-69
2023/03/17 07:44:33;;;;;;;;;;;;;;;6.00;88.93;100135.91;5093224;28;776;-72
2023/03/17 07:46:59;;;;;;;;;;;;;;;6.52;88.44;100167.41;5092731;28;804;-71
2023/03/17 07:49:26;;;;;;;;;;;;;;;6.77;87.30;100127.81;5092795;28;882;-70
2023/03/17 07:51:53;;;;;;;;;;;;;;;7.08;84.88;100130.25;5092322;28;1893;-69
2023/03/17 07:54:20;;;;;;;;;;;;;;;7.04;84.88;100145.06;5092321;28;871;-69
2023/03/17 07:56:46;;;;;;;;;;;;;;;7.28;86.37;100139.16;5092217;28;959;-69
2023/03/17 07:59:14;;;;;;;;;;;;;;;7.22;81.06;100123.34;5092244;28;831;-66
2023/03/17 08:01:40;;;;;;;;;;;;;;;7.15;85.58;100140.56;5092176;28;851;-68
2023/03/17 08:04:09;;;;;;;;;;;;;;;7.38;82.91;100150.66;5091915;28;883;-67
2023/03/17 08:06:36;;;;;;;;;;;;;;;7.24;81.29;100113.56;5092443;28;978;-68
2023/03/17 08:09:03;;;;;;;;;;;;;;;7.30;82.48;100144.28;5091923;28;1287;-69
2023/03/17 08:11:29;;;;;;;;;;;;;;;7.54;83.02;100146.56;5092683;28;768;-67
2023/03/17 08:13:56;;;;;;;;;;;;;;;7.54;80.17;100132.03;5092151;28;1905;-67
2023/03/17 08:16:23;;;;;;;;;;;;;;;7.60;82.39;100127.78;5091842;28;855;-66
2023/03/17 08:18:48;;;;;;;;;;;;;;;7.82;76.68;100141.78;5091825;28;887;-66
2023/03/17 08:21:16;;;;;;;;;;;;;;;7.85;78.70;100179.56;5091884;28;859;-66
2023/03/17 08:23:42;;;;;;;;;;;;;;;7.87;77.78;100164.28;5091846;28;828;-69
2023/03/17 08:26:10;;;;;;;;;;;;;;;7.87;77.92;100149.72;5091769;28;840;-68
2023/03/17 08:28:36;;;;;;;;;;;;;;;7.81;77.27;100145.69;5073759;28;1673;-69
2023/03/17 08:31:08;;;;;;;;;;;;;;;8.00;77.31;100159.31;5091761;28;859;-70
2023/03/17 08:33:35;;;;;;;;;;;;;;;7.81;76.62;100126.44;5091964;28;1952;-68
2023/03/17 08:36:05;;;;;;;;;;;;;;;8.12;77.71;100144.47;5092033;28;844;-68
2023/03/17 08:38:32;;;;;;;;;;;;;;;7.67;76.15;100140.84;5073515;28;1212;-66
2023/03/17 08:41:02;;;;;;;;;;;;;;;7.62;76.61;100149.41;5091714;28;815;-67
2023/03/17 08:43:28;;;;;;;;;;;;;;;7.39;78.15;100131.06;5091686;28;879;-66
2023/03/17 08:46:03;;;;;;;;;;;;;;;7.55;79.50;100120.66;5091444;28;796;-67
2023/03/17 08:48:31;;;;;;;;;;;;;;;7.06;77.47;100129.81;5091346;28;1594;-69
2023/03/17 08:50:58;;;;;;;;;;;;;;;7.05;77.73;100121.94;5091580;28;903;-70
2023/03/17 08:53:24;;;;;;;;;;;;;;;7.29;79.03;100109.69;5091429;28;1886;-68
2023/03/17 08:55:53;;;;;;;;;;;;;;;7.48;77.04;100130.78;5091460;28;886;-70
2023/03/17 08:58:20;;;;;;;;;;;;;;;7.88;74.65;100121.81;5091467;28;886;-67
2023/03/17 09:00:47;;;;;;;;;;;;;;;8.06;74.05;100107.44;5091441;28;855;-66
2023/03/17 09:03:12;;;;;;;;;;;;;;;7.93;72.59;100118.72;5091436;28;871;-68
2023/03/17 09:05:41;;;;;;;;;;;;;;;7.76;74.36;100116.56;5091476;28;913;-67
2023/03/17 09:08:07;;;;;;;;;;;;;;;8.35;68.45;100105.75;5091366;28;927;-69
2023/03/17 09:10:35;;;;;;;;;;;;;;;8.14;66.21;100093.38;5091029;28;1174;-66
2023/03/17 09:13:04;;;;;;;;;;;;;;;8.03;64.67;100122.75;5091218;28;1905;-69
2023/03/17 09:27:58;;;;;;;;;;;;;;;8.10;62.90;100127.56;5013036;28;627;-67
2023/03/17 09:30:25;;;;;;;;;;;;;;;8.32;63.17;100159.66;5012983;28;917;-65
2023/03/17 09:32:52;;;;;;;;;;;;;;;8.38;63.61;100125.09;4996584;28;1952;-74
2023/03/17 09:35:19;;;;;;;;;;;;;;;8.60;62.47;100128.06;4996470;28;1076;-68
2023/03/17 09:37:46;;;;;;;;;;;;;;;8.53;62.20;100137.03;5012924;28;880;-69
2023/03/17 10:08:56;;;;;;;;;;;;;;;8.87;59.60;100155.41;6071449;22;1741;-66
2023/03/17 10:11:28;;;;;;;;;;;;;;;9.18;60.59;100149.34;5074175;28;901;-67
2023/03/17 10:14:14;;;;;;;;;;;;;;;9.31;58.14;100146.25;5072764;28;1918;-63
2023/03/17 10:16:41;;;;;;;;;;;;;;;9.26;58.56;100133.63;5073898;28;899;-69
2023/03/17 10:19:25;;;;;;;;;;;;;;;9.44;57.09;100133.72;5074400;28;815;-75
2023/03/17 10:21:56;;;;;;;;;;;;;;;9.52;57.39;100142.84;5074527;28;874;-69
2023/03/17 10:24:25;;;;;;;;;;;;;;;9.28;54.81;100142.31;5074187;28;894;-75
2023/03/17 10:26:54;;;;;;;;;;;;;;;9.27;57.72;100164.75;5073041;28;799;-69
2023/03/17 10:29:22;;;;;;;;;;;;;;;9.64;56.48;100147.22;5074120;28;878;-67
2023/03/17 10:34:53;;;;;;;;;;;;;;;9.43;57.12;100136.84;5074437;28;701;-72
2023/03/17 10:37:21;;;;;;;;;;;;;;;9.88;57.60;100145.72;5072757;28;1342;-71
2023/03/17 10:39:50;;;;;;;;;;;;;;;10.29;57.74;100134.41;5073621;28;815;-66
2023/03/17 10:42:46;;;;;;;;;;;;;;;10.42;54.50;100152.19;5073601;28;995;-73
2023/03/17 10:45:23;;;;;;;;;;;;;;;9.69;55.85;100146.84;5064665;28;1162;-70
2023/03/17 10:47:50;;;;;;;;;;;;;;;9.04;56.16;100138.22;5074012;28;902;-72
2023/03/17 10:50:27;;;;;;;;;;;;;;;8.71;57.45;100134.44;5073822;28;851;-71
2023/03/17 10:53:07;;;;;;;;;;;;;;;8.92;58.00;100142.06;5073767;28;1940;-70
2023/03/17 10:55:37;;;;;;;;;;;;;;;8.92;57.87;100133.03;5072198;28;1242;-67
2023/03/17 10:58:13;;;;;;;;;;;;;;;9.22;58.58;100112.69;5073412;28;823;-72
2023/03/17 11:00:49;;;;;;;;;;;;;;;9.79;57.89;100122.06;5089516;28;1387;-68
2023/03/17 11:03:21;;;;;;;;;;;;;;;9.40;57.24;100108.06;5071907;28;1583;-69
2023/03/17 11:06:18;;;;;;;;;;;;;;;9.18;57.38;100109.94;5072098;28;886;-70
2023/03/17 11:08:49;;;;;;;;;;;;;;;8.74;56.32;100080.50;5068833;28;1188;-72
2023/03/17 11:11:28;;;;;;;;;;;;;;;8.50;56.81;100124.03;5112515;28;1475;-71
2023/03/17 11:14:14;;;;;;;;;;;;;;;9.01;57.63;100116.94;5114286;28;1965;-71
2023/03/17 11:17:01;;;;;;;;;;;;;;;9.07;56.62;100101.59;5111896;28;1205;-75
2023/03/17 11:19:44;;;;;;;;;;;;;;;9.53;55.55;100119.56;5111049;28;1305;-65
2023/03/17 11:22:11;;;;;;;;;;;;;;;9.76;54.81;100103.50;5112432;28;1628;-69
2023/03/17 11:24:44;;;;;;;;;;;;;;;9.91;54.38;100111.81;5113635;28;787;-68
2023/03/17 11:27:19;;;;;;;;;;;;;;;9.78;54.52;100095.59;5113925;28;859;-74
2023/03/17 11:30:09;;;;;;;;;;;;;;;9.72;55.69;100127.53;5113389;28;1125;-70
2023/03/17 11:32:42;;;;;;;;;;;;;;;9.92;56.78;100108.69;5075338;28;1918;-70
2023/03/17 11:35:12;;;;;;;;;;;;;;;10.63;54.02;100124.56;5112123;28;1293;-73
2023/03/17 11:37:57;;;;;;;;;;;;;;;9.97;54.66;100108.28;5112893;28;842;-71
2023/03/17 11:40:25;;;;;;;;;;;;;;;9.34;54.36;100112.38;5113276;28;827;-72
2023/03/17 11:43:06;;;;;;;;;;;;;;;9.44;54.36;100124.66;5113252;28;858;-70
2023/03/17 11:45:39;;;;;;;;;;;;;;;10.08;56.98;100088.19;5113456;28;799;-70
2023/03/17 11:48:15;;;;;;;;;;;;;;;10.56;55.01;100088.66;5112989;28;925;-71
2023/03/17 11:50:44;;;;;;;;;;;;;;;10.79;53.08;100088.22;5113743;28;795;-69
2023/03/17 11:53:35;;;;;;;;;;;;;;;10.92;52.56;100088.59;5112997;28;1886;-72
2023/03/17 11:56:07;;;;;;;;;;;;;;;11.06;50.69;100100.84;5111551;28;1235;-70
2023/03/17 11:58:40;;;;;;;;;;;;;;;10.58;52.23;100096.53;5113191;28;831;-75
2023/03/17 12:01:08;;;;;;;;;;;;;;;10.53;52.39;100106.00;5111660;28;1283;-72
2023/03/17 12:03:44;;;;;;;;;;;;;;;10.72;52.16;100098.50;5113122;28;826;-74
2023/03/17 12:06:31;;;;;;;;;;;;;;;10.60;50.43;100070.09;5113491;28;806;-73
2023/03/17 12:09:16;;;;;;;;;;;;;;;10.38;51.32;100096.94;5111501;28;1358;-72
2023/03/17 12:11:48;;;;;;;;;;;;;;;10.62;51.91;100095.38;5113184;28;846;-73
2023/03/17 12:14:20;;;;;;;;;;;;;;;10.71;51.98;100091.38;5112911;28;1971;-73
2023/03/17 12:16:49;;;;;;;;;;;;;;;11.24;50.85;100085.78;5112602;28;893;-72
2023/03/17 12:22:33;;;;;;;;;;;;;;;11.01;50.03;100099.28;5113057;28;637;-72
2023/03/17 12:25:06;;;;;;;;;;;;;;;10.89;49.34;100088.63;5113501;28;850;-76
2023/03/17 12:27:35;;;;;;;;;;;;;;;10.93;50.17;100109.53;5113218;28;814;-71
2023/03/17 12:30:15;;;;;;;;;;;;;;;10.94;49.92;100096.50;5113038;28;930;-70
2023/03/17 12:32:53;;;;;;;;;;;;;;;10.89;48.59;100083.88;5113027;28;1949;-73
2023/03/17 12:35:33;;;;;;;;;;;;;;;10.97;49.65;100090.19;5112707;28;1052;-74
2023/03/17 12:38:03;;;;;;;;;;;;;;;11.06;49.72;100087.78;5112278;28;823;-72
2023/03/17 12:40:50;;;;;;;;;;;;;;;11.09;48.85;100105.56;5112379;28;892;-72
2023/03/17 12:43:20;;;;;;;;;;;;;;;11.12;47.71;100086.19;5112647;28;843;-72
2023/03/17 12:46:09;;;;;;;;;;;;;;;11.17;49.71;100090.53;5110986;28;856;-73
2023/03/17 12:48:44;;;;;;;;;;;;;;;11.22;48.90;100092.88;5101151;28;1211;-73
2023/03/17 12:51:24;;;;;;;;;;;;;;;11.18;48.48;100092.09;5111843;28;807;-71
2023/03/17 12:53:51;;;;;;;;;;;;;;;11.40;50.43;100084.53;5112080;28;1954;-73
2023/03/17 12:56:20;;;;;;;;;;;;;;;11.44;49.07;100086.09;5112503;28;769;-71
2023/03/17 12:58:50;;;;;;;;;;;;;;;11.42;47.15;100087.69;5112299;28;874;-75
2023/03/17 13:01:50;;;;;;;;;;;;;;;11.20;46.35;100098.81;5111954;28;862;-74
2023/03/17 13:04:24;;;;;;;;;;;;;;;10.86;46.59;100081.91;5067786;28;1441;-72
2023/03/17 13:06:54;;;;;;;;;;;;;;;11.01;46.86;100083.47;5111748;28;910;-70
2023/03/17 13:12:39;;;;;;;;;;;;;;;10.88;46.71;100089.78;5101534;28;1969;-75
2023/03/17 13:15:21;;;;;;;;;;;;;;;10.89;46.48;100091.38;5111801;28;929;-69
2023/03/17 13:17:49;;;;;;;;;;;;;;;10.83;46.68;100096.50;5111925;28;842;-69
2023/03/17 13:20:17;;;;;;;;;;;;;;;10.74;46.73;100079.56;5111952;28;847;-72
2023/03/17 13:23:20;;;;;;;;;;;;;;;10.88;45.98;100096.13;5111828;28;839;-71
2023/03/17 13:25:52;;;;;;;;;;;;;;;10.93;46.18;100106.00;5029143;28;1315;-69
2023/03/17 13:28:48;;;;;;;;;;;;;;;10.88;45.79;100089.78;5029251;28;913;-72
2023/03/17 13:31:28;;;;;;;;;;;;;;;10.75;47.41;100090.22;5012876;28;1442;-70
2023/03/17 13:33:56;;;;;;;;;;;;;;;10.88;47.28;100087.84;5029176;28;1961;-70
2023/03/17 13:36:28;;;;;;;;;;;;;;;11.04;47.01;100092.94;5028980;28;891;-70
2023/03/17 13:38:54;;;;;;;;;;;;;;;11.14;46.27;100075.53;5029100;28;816;-70
2023/03/17 13:41:26;;;;;;;;;;;;;;;11.35;46.80;100082.97;5012436;28;1274;-70
2023/03/17 13:44:04;;;;;;;;;;;;;;;11.32;46.27;100071.91;5029084;28;856;-70
2023/03/17 13:46:31;;;;;;;;;;;;;;;11.39;46.66;100066.34;5029167;28;938;-71
2023/03/17 13:49:00;;;;;;;;;;;;;;;11.57;46.61;100075.34;5012368;28;1161;-71
2023/03/17 13:51:32;;;;;;;;;;;;;;;11.75;44.75;100064.19;5029066;28;824;-72
2023/03/17 13:54:17;;;;;;;;;;;;;;;11.69;45.03;100048.41;5028758;28;1878;-71
2023/03/17 13:56:44;;;;;;;;;;;;;;;11.21;45.55;100075.50;5029235;28;875;-71
2023/03/17 13:59:14;;;;;;;;;;;;;;;11.23;46.03;100064.03;5052596;28;1047;-70
2023/03/17 14:01:45;;;;;;;;;;;;;;;11.03;44.02;100085.81;5111618;28;1065;-74
2023/03/17 14:04:23;;;;;;;;;;;;;;;11.23;44.84;100077.88;5115383;28;826;-70
2023/03/17 14:06:52;;;;;;;;;;;;;;;11.32;43.99;100080.19;5114953;28;834;-70